Time;durP1;ratioP1;P1;durP2;ratioP2;P2;SDS_P1;SDS_P2;PMS_P1;PMS_P2;Temp;Humidity;BMP_temperature;BMP_pressure;BME280_temperature;BME280_humidity;BME280_pressure;Samples;Min_cycle;Max_cycle;Signal;HPM_P1;HPM_P2
2022/09/16 00:00:53;;;;;;;12.98;3.00;;;;;;;23.54;54.38;94149.47;5111808;28;20211;-79
2022/09/16 00:03:20;;;;;;;8.80;3.28;;;;;;;23.54;55.13;94149.47;5113056;28;20192;-79
2022/09/16 00:05:48;;;;;;;12.00;2.95;;;;;;;23.29;54.50;94128.09;5112810;28;20700;-78
2022/09/16 00:08:16;;;;;;;8.60;3.17;;;;;;;22.99;54.82;94081.28;5113762;28;20189;-79
2022/09/16 00:10:43;;;;;;;9.57;3.03;;;;;;;23.47;54.52;94145.41;5113899;28;20193;-77
2022/09/16 00:13:14;;;;;;;10.45;2.88;;;;;;;23.46;54.70;94156.88;5116232;28;20249;-80
2022/09/16 00:15:43;;;;;;;7.88;2.75;;;;;;;23.41;54.99;94167.22;5115453;28;20660;-78
2022/09/16 00:18:11;;;;;;;8.32;2.88;;;;;;;23.37;55.98;94174.69;5115173;28;20189;-80
2022/09/16 00:20:43;;;;;;;11.18;3.25;;;;;;;23.36;55.87;94172.31;5115012;28;20224;-77
2022/09/16 00:23:10;;;;;;;6.07;2.90;;;;;;;23.26;55.71;94178.91;5116048;28;20193;-79
2022/09/16 00:25:36;;;;;;;14.23;3.00;;;;;;;23.24;55.88;94170.53;5116091;28;20206;-78
2022/09/16 00:28:04;;;;;;;4.35;2.90;;;;;;;23.15;56.35;94160.66;5116446;28;20193;-80
2022/09/16 00:30:30;;;;;;;10.98;3.28;;;;;;;23.24;55.96;94162.69;5114218;28;20193;-80
2022/09/16 00:32:58;;;;;;;14.82;3.10;;;;;;;23.09;55.94;94136.28;5112981;28;20189;-79
2022/09/16 00:35:25;;;;;;;8.40;3.28;;;;;;;22.82;55.90;94091.59;5112927;28;20672;-79
2022/09/16 00:37:52;;;;;;;10.55;3.10;;;;;;;23.16;55.79;94150.00;5113310;28;20185;-81
2022/09/16 00:40:19;;;;;;;9.18;3.03;;;;;;;23.13;56.04;94150.44;5113009;28;20216;-81
2022/09/16 00:42:46;;;;;;;6.10;3.40;;;;;;;23.13;55.85;94158.28;5112566;28;20613;-80
2022/09/16 00:45:19;;;;;;;7.90;2.80;;;;;;;23.15;55.87;94161.47;5113342;28;20610;-79
2022/09/16 00:47:51;;;;;;;6.03;2.80;;;;;;;22.34;55.87;94029.28;5112328;28;20188;-78
2022/09/16 00:50:23;;;;;;;6.65;2.80;;;;;;;23.06;56.00;94135.94;5112201;28;20686;-79
2022/09/16 00:52:51;;;;;;;5.13;2.78;;;;;;;22.73;55.78;94098.97;5112650;28;20196;-78
2022/09/16 00:55:23;;;;;;;3.85;2.17;;;;;;;23.11;56.07;94157.72;5112528;28;20197;-77
2022/09/16 00:57:51;;;;;;;7.68;2.38;;;;;;;23.09;56.05;94164.16;5112976;28;20765;-79
2022/09/16 01:00:18;;;;;;;9.10;3.20;;;;;;;22.96;56.16;94142.50;5112998;28;20719;-78
2022/09/16 01:02:47;;;;;;;6.80;2.97;;;;;;;23.11;56.20;94167.34;5112515;28;20204;-79
2022/09/16 01:05:17;;;;;;;7.75;2.80;;;;;;;22.82;56.34;94130.72;5113200;28;20227;-78
2022/09/16 01:07:48;;;;;;;8.38;3.10;;;;;;;23.01;56.58;94163.50;5114110;28;20192;-78
2022/09/16 01:10:16;;;;;;;9.82;3.05;;;;;;;21.78;56.63;93972.25;5118975;28;20567;-77
2022/09/16 01:12:46;;;;;;;8.38;3.30;;;;;;;23.01;56.76;94167.91;5112448;28;20216;-79
2022/09/16 01:15:14;;;;;;;7.72;2.60;;;;;;;22.93;56.78;94169.06;5112969;28;20189;-78
2022/09/16 01:17:54;;;;;;;8.20;2.60;;;;;;;22.66;57.56;94128.78;5112173;28;20301;-78
2022/09/16 01:20:55;;;;;;;10.32;2.80;;;;;;;22.67;57.19;94140.81;5112208;28;20204;-78
2022/09/16 01:24:02;;;;;;;8.35;3.00;;;;;;;22.90;56.75;94168.72;5112641;28;20226;-78
2022/09/16 01:27:01;;;;;;;5.50;2.75;;;;;;;22.85;57.05;94176.41;5112576;28;20211;-78
2022/09/16 01:29:44;;;;;;;10.45;3.03;;;;;;;22.83;56.95;94175.81;5112512;28;20191;-78
2022/09/16 01:32:18;;;;;;;5.18;2.70;;;;;;;22.81;57.32;94177.88;5112450;28;20192;-78
2022/09/16 01:34:52;;;;;;;6.82;2.70;;;;;;;22.79;57.50;94183.28;5112239;28;20592;-79
2022/09/16 01:37:29;;;;;;;11.00;2.55;;;;;;;22.77;57.92;94172.31;5112025;28;20204;-79
2022/09/16 01:40:03;;;;;;;7.57;2.50;;;;;;;22.79;57.59;94158.00;5112210;28;20686;-79
2022/09/16 01:42:39;;;;;;;5.45;2.90;;;;;;;22.79;57.47;94159.84;5111903;28;20257;-78
2022/09/16 01:45:13;;;;;;;6.63;2.42;;;;;;;22.73;57.62;94155.53;5111463;28;20211;-79
2022/09/16 01:47:49;;;;;;;9.18;2.63;;;;;;;22.74;57.54;94157.91;5111246;28;21041;-78
2022/09/16 01:50:22;;;;;;;6.95;2.95;;;;;;;22.63;57.77;94143.06;5111765;28;20683;-77
2022/09/16 01:52:59;;;;;;;9.75;2.95;;;;;;;22.74;57.56;94150.09;5111495;28;20714;-80
2022/09/16 01:55:32;;;;;;;5.40;2.45;;;;;;;22.78;57.78;94160.84;5111831;28;20181;-78
2022/09/16 01:58:02;;;;;;;13.43;2.90;;;;;;;22.66;58.18;94149.63;5110652;28;20193;-78
2022/09/16 02:00:30;;;;;;;3.92;2.58;;;;;;;22.73;57.51;94148.50;5111409;28;20204;-79
2022/09/16 02:03:02;;;;;;;8.40;2.75;;;;;;;22.80;57.53;94137.97;5111281;28;20192;-78
2022/09/16 02:05:34;;;;;;;11.00;2.63;;;;;;;22.75;57.61;94132.63;5111164;28;20247;-80
2022/09/16 02:08:06;;;;;;;9.98;2.70;;;;;;;22.77;57.72;94146.25;5110975;28;20283;-78
2022/09/16 02:10:39;;;;;;;7.18;2.80;;;;;;;22.67;57.63;94139.00;5111190;28;20184;-77
2022/09/16 02:13:15;;;;;;;11.88;4.55;;;;;;;22.68;57.87;94130.16;5111064;28;20216;-78
2022/09/16 02:15:44;;;;;;;8.38;2.95;;;;;;;22.74;57.86;94136.25;5110930;28;20213;-79
2022/09/16 02:18:15;;;;;;;6.78;2.72;;;;;;;22.67;58.02;94146.03;5111347;28;20200;-78
2022/09/16 02:20:45;;;;;;;7.47;2.63;;;;;;;22.67;57.94;94146.81;5111031;28;20193;-78
2022/09/16 02:23:15;;;;;;;10.50;2.45;;;;;;;22.57;57.98;94120.50;5110294;28;20532;-80
2022/09/16 02:25:45;;;;;;;8.57;2.78;;;;;;;22.74;57.92;94157.13;5110815;28;20185;-77
2022/09/16 02:28:16;;;;;;;4.93;2.30;;;;;;;22.73;57.78;94129.47;5110724;28;20177;-79
2022/09/16 02:30:47;;;;;;;14.10;3.28;;;;;;;22.62;57.88;94141.44;5110857;28;20181;-77
2022/09/16 02:33:17;;;;;;;7.35;3.10;;;;;;;22.67;57.79;94148.63;5110954;28;20203;-78
2022/09/16 02:35:48;;;;;;;6.50;2.60;;;;;;;22.72;58.11;94138.31;5111122;28;20193;-77
2022/09/16 02:38:20;;;;;;;2.88;2.58;;;;;;;22.68;58.14;94163.25;5110623;28;20188;-77
2022/09/16 02:40:51;;;;;;;5.07;2.67;;;;;;;22.57;58.87;94159.59;5110630;28;20189;-77
2022/09/16 02:43:19;;;;;;;10.32;2.80;;;;;;;22.37;58.58;94125.25;5111000;28;20188;-78
2022/09/16 02:45:52;;;;;;;13.63;3.15;;;;;;;22.38;58.16;94145.84;5110822;28;20204;-77
2022/09/16 02:48:29;;;;;;;11.90;3.30;;;;;;;22.57;58.66;94164.78;5110354;28;20239;-78
2022/09/16 02:51:03;;;;;;;5.38;2.78;;;;;;;22.57;58.47;94174.44;5110121;28;20185;-78
2022/09/16 02:53:40;;;;;;;5.85;3.00;;;;;;;22.41;58.68;94145.41;5110639;28;20180;-77
2022/09/16 02:56:13;;;;;;;9.60;3.10;;;;;;;22.52;58.55;94165.47;5110624;28;20181;-79
2022/09/16 02:58:40;;;;;;;5.70;2.20;;;;;;;22.55;58.57;94182.50;5110572;28;20200;-77
2022/09/16 03:01:08;;;;;;;5.30;2.78;;;;;;;22.52;58.44;94190.75;5109819;28;20614;-79
2022/09/16 03:03:36;;;;;;;6.90;2.80;;;;;;;22.51;58.35;94181.34;5110269;28;20609;-78
2022/09/16 03:06:21;;;;;;;9.80;2.80;;;;;;;22.33;58.54;94158.75;5110137;28;20308;-79
2022/09/16 03:08:50;;;;;;;6.50;2.35;;;;;;;22.46;58.97;94178.63;5110450;28;20185;-78
2022/09/16 03:11:47;;;;;;;5.53;2.05;;;;;;;22.27;58.47;94160.44;5110261;28;20199;-80
2022/09/16 03:14:28;;;;;;;6.80;2.60;;;;;;;22.49;58.20;94188.56;5110840;28;20189;-78
2022/09/16 03:17:04;;;;;;;5.53;2.47;;;;;;;22.54;59.02;94193.94;5114335;28;20196;-77
2022/09/16 03:19:40;;;;;;;6.55;2.70;;;;;;;22.55;58.37;94195.53;5114753;28;20192;-78
2022/09/16 03:22:18;;;;;;;7.85;2.45;;;;;;;22.30;58.65;94164.41;5120233;28;20220;-79
2022/09/16 03:24:52;;;;;;;7.75;2.95;;;;;;;22.54;58.62;94215.56;5124534;28;20223;-78
2022/09/16 03:27:25;;;;;;;5.07;2.95;;;;;;;22.53;58.94;94200.94;5128819;28;20193;-80
2022/09/16 03:29:57;;;;;;;6.90;2.70;;;;;;;22.53;58.88;94198.31;5120590;28;20275;-78
2022/09/16 03:32:27;;;;;;;8.75;3.08;;;;;;;22.45;59.04;94158.78;5112606;28;20177;-78
2022/09/16 03:35:01;;;;;;;5.75;2.42;;;;;;;22.56;59.19;94178.06;5111136;28;20185;-78
2022/09/16 03:37:33;;;;;;;12.38;3.00;;;;;;;22.52;59.41;94191.53;5114901;28;20191;-78
2022/09/16 03:40:03;;;;;;;6.72;2.83;;;;;;;22.53;59.35;94180.09;5114511;28;20212;-78
2022/09/16 03:42:29;;;;;;;5.20;2.70;;;;;;;22.50;59.76;94177.16;5113962;28;20213;-79
2022/09/16 03:44:56;;;;;;;3.30;2.60;;;;;;;22.54;59.23;94165.28;5113815;28;20196;-79
2022/09/16 03:47:23;;;;;;;6.50;3.03;;;;;;;22.40;59.04;94138.59;5114018;28;20199;-79
2022/09/16 03:49:50;;;;;;;8.18;2.78;;;;;;;22.59;59.23;94148.97;5114125;28;20185;-79
2022/09/16 03:52:18;;;;;;;7.82;2.63;;;;;;;22.40;59.59;94146.41;5113893;28;20736;-79
2022/09/16 03:54:45;;;;;;;10.43;3.30;;;;;;;22.51;59.79;94147.47;5113694;28;20196;-78
2022/09/16 03:57:12;;;;;;;13.63;3.67;;;;;;;22.35;60.46;94146.28;5114120;28;20185;-80
2022/09/16 03:59:40;;;;;;;10.63;3.53;;;;;;;22.17;60.08;94139.34;5113829;28;20189;-79
2022/09/16 04:02:06;;;;;;;7.30;2.47;;;;;;;22.35;59.99;94174.94;5114290;28;20224;-80
2022/09/16 04:04:34;;;;;;;11.05;3.15;;;;;;;22.34;59.95;94191.63;5113638;28;20193;-80
2022/09/16 04:07:01;;;;;;;8.70;3.65;;;;;;;21.96;60.45;94153.63;5114529;28;20235;-76
2022/09/16 04:09:29;;;;;;;9.23;3.22;;;;;;;22.34;60.35;94206.44;5095614;28;20189;-79
2022/09/16 04:11:56;;;;;;;11.45;3.50;;;;;;;22.26;61.43;94210.94;5113462;28;20192;-78
2022/09/16 04:14:23;;;;;;;10.43;3.38;;;;;;;22.29;60.62;94218.31;5113627;28;20189;-80
2022/09/16 04:16:50;;;;;;;11.82;3.28;;;;;;;22.31;60.33;94220.69;5113632;28;20211;-80
2022/09/16 04:19:17;;;;;;;5.93;3.30;;;;;;;22.06;61.70;94181.72;5113646;28;20644;-79
2022/09/16 04:21:44;;;;;;;9.63;3.67;;;;;;;22.28;61.04;94219.34;5113327;28;20220;-79
2022/09/16 04:24:11;;;;;;;8.57;3.28;;;;;;;22.33;60.59;94221.28;5113831;28;20580;-78
2022/09/16 04:26:40;;;;;;;14.60;3.55;;;;;;;22.31;60.85;94232.94;5112962;28;20203;-78
2022/09/16 04:29:06;;;;;;;7.10;3.03;;;;;;;22.27;61.46;94229.97;5113621;28;20196;-77
2022/09/16 04:31:33;;;;;;;8.45;3.85;;;;;;;22.31;60.88;94225.13;5113350;28;20200;-79
2022/09/16 04:34:01;;;;;;;8.85;3.60;;;;;;;22.21;60.72;94208.22;5116556;28;20208;-77
2022/09/16 04:36:29;;;;;;;9.13;3.38;;;;;;;22.40;60.44;94224.59;5118646;28;20196;-78
2022/09/16 04:38:56;;;;;;;12.85;4.45;;;;;;;22.50;60.33;94211.81;5109826;28;20193;-79
2022/09/16 04:41:25;;;;;;;12.88;3.67;;;;;;;22.11;60.09;94145.44;5111453;28;20195;-80
2022/09/16 04:43:56;;;;;;;8.13;3.13;;;;;;;22.63;60.18;94223.88;5105869;28;20706;-77
2022/09/16 04:46:23;;;;;;;8.00;3.08;;;;;;;22.63;59.58;94229.09;5111237;28;20185;-78
2022/09/16 04:48:51;;;;;;;7.38;3.63;;;;;;;22.66;59.41;94222.59;5093946;28;20215;-79
2022/09/16 04:51:21;;;;;;;10.85;3.90;;;;;;;22.60;59.18;94205.28;5102397;28;20200;-80
2022/09/16 04:53:48;;;;;;;8.77;3.72;;;;;;;22.67;60.24;94238.03;5112870;28;20181;-77
2022/09/16 04:56:17;;;;;;;12.52;4.07;;;;;;;22.35;60.11;94177.56;5111414;28;20682;-78
2022/09/16 04:58:45;;;;;;;13.05;4.68;;;;;;;22.74;60.00;94246.53;5112814;28;20200;-79
2022/09/16 05:01:15;;;;;;;12.77;4.35;;;;;;;22.76;60.46;94231.47;5103807;28;20205;-80
2022/09/16 05:03:44;;;;;;;13.52;3.63;;;;;;;22.51;61.03;94189.16;5091921;28;20232;-80
2022/09/16 05:06:14;;;;;;;9.18;3.95;;;;;;;22.78;60.94;94221.63;5107344;28;20221;-80
2022/09/16 05:08:41;;;;;;;9.88;3.53;;;;;;;22.65;61.39;94206.19;5116224;28;20189;-80
2022/09/16 05:11:10;;;;;;;16.23;4.00;;;;;;;22.84;61.63;94219.94;5117391;28;20201;-79
2022/09/16 05:13:38;;;;;;;9.80;4.30;;;;;;;22.93;61.70;94220.44;5121275;28;20185;-81
2022/09/16 05:16:06;;;;;;;7.72;3.97;;;;;;;23.00;61.66;94221.88;5119883;28;20234;-82
2022/09/16 05:18:34;;;;;;;11.50;3.50;;;;;;;23.18;61.00;94215.75;5113918;28;20189;-81
2022/09/16 05:21:03;;;;;;;9.73;3.42;;;;;;;23.32;60.73;94213.75;5117939;28;20560;-79
2022/09/16 05:23:31;;;;;;;12.43;4.10;;;;;;;22.91;61.13;94136.41;5121369;28;20677;-80
2022/09/16 05:26:03;;;;;;;12.80;3.60;;;;;;;23.48;60.96;94201.78;5118330;28;20201;-78
2022/09/16 05:28:30;;;;;;;6.38;3.60;;;;;;;23.41;60.79;94175.84;5114137;28;20223;-81
2022/09/16 05:31:08;;;;;;;10.32;3.85;;;;;;;23.63;61.44;94214.38;5113616;28;20200;-80
2022/09/16 05:33:36;;;;;;;11.10;4.10;;;;;;;23.54;61.42;94172.97;5111610;28;20261;-78
2022/09/16 05:36:07;;;;;;;16.95;5.03;;;;;;;23.78;60.64;94199.03;5110245;28;20197;-78
2022/09/16 05:38:34;;;;;;;21.38;5.28;;;;;;;23.93;59.93;94199.34;5111743;28;20204;-78
2022/09/16 05:41:01;;;;;;;12.00;4.75;;;;;;;24.00;59.93;94193.97;5112805;28;20548;-78
2022/09/16 05:43:28;;;;;;;15.93;5.47;;;;;;;24.09;60.33;94187.34;5112637;28;20197;-78
2022/09/16 05:45:56;;;;;;;11.35;4.72;;;;;;;24.13;60.41;94190.28;5113746;28;20185;-78
2022/09/16 05:48:24;;;;;;;14.32;4.82;;;;;;;24.20;60.44;94189.13;5114383;28;20185;-77
2022/09/16 05:50:54;;;;;;;18.58;4.30;;;;;;;24.33;60.27;94189.88;5114505;28;20177;-77
2022/09/16 05:53:21;;;;;;;13.30;4.75;;;;;;;24.35;60.80;94190.41;5120392;28;20223;-78
2022/09/16 05:55:56;;;;;;;22.23;5.03;;;;;;;24.54;61.03;94212.75;5120193;28;20196;-77
2022/09/16 05:58:22;;;;;;;13.27;5.68;;;;;;;24.65;60.89;94204.00;5113447;28;20280;-78
2022/09/16 06:00:50;;;;;;;20.83;5.20;;;;;;;24.78;60.66;94208.97;5112090;28;20219;-76
2022/09/16 06:03:17;;;;;;;19.98;4.75;;;;;;;24.63;60.27;94161.63;5112294;28;20248;-77
2022/09/16 06:05:43;;;;;;;14.52;4.30;;;;;;;24.76;60.28;94165.75;5110195;28;20224;-79
2022/09/16 06:08:12;;;;;;;21.45;4.60;;;;;;;25.10;59.50;94197.16;5111114;28;20234;-76
2022/09/16 06:10:39;;;;;;;14.00;4.40;;;;;;;25.19;58.51;94195.72;5110206;28;20374;-80
2022/09/16 06:13:06;;;;;;;9.38;3.60;;;;;;;25.36;57.03;94196.47;5110216;28;20196;-81
2022/09/16 06:15:34;;;;;;;9.70;2.92;;;;;;;25.63;56.03;94193.94;5110382;28;20196;-78
2022/09/16 06:18:01;;;;;;;10.80;3.58;;;;;;;25.77;54.54;94203.03;5110219;28;20185;-80
2022/09/16 06:20:28;;;;;;;11.10;3.33;;;;;;;25.83;52.82;94190.03;5109624;28;20193;-78
2022/09/16 06:22:55;;;;;;;9.88;2.80;;;;;;;25.92;50.40;94186.72;5110462;28;20217;-77
2022/09/16 06:25:23;;;;;;;12.90;3.35;;;;;;;25.93;50.23;94188.28;5109883;28;20219;-78
2022/09/16 06:27:50;;;;;;;9.32;2.72;;;;;;;26.05;50.88;94190.00;5106623;28;20185;-79
2022/09/16 06:30:17;;;;;;;6.65;2.78;;;;;;;26.20;51.26;94190.94;5098103;28;20306;-76
2022/09/16 06:32:43;;;;;;;4.45;2.50;;;;;;;26.33;51.05;94188.97;5090027;28;20196;-78
2022/09/16 06:35:10;;;;;;;9.00;2.92;;;;;;;26.09;51.12;94130.81;5088571;28;20189;-77
2022/09/16 06:37:37;;;;;;;6.38;2.58;;;;;;;26.62;50.05;94197.38;5109093;28;20568;-77
2022/09/16 06:40:04;;;;;;;6.85;2.63;;;;;;;26.68;48.90;94173.56;5110167;28;20181;-76
2022/09/16 06:42:33;;;;;;;7.75;2.75;;;;;;;26.71;48.77;94201.94;5109095;28;20212;-78
2022/09/16 06:44:59;;;;;;;9.43;3.03;;;;;;;26.78;46.14;94196.47;5108663;28;20234;-76
2022/09/16 06:47:26;;;;;;;8.35;2.53;;;;;;;26.60;46.26;94187.16;5089408;28;20664;-79
2022/09/16 06:49:53;;;;;;;8.55;2.92;;;;;;;26.77;46.53;94197.53;5089290;28;20212;-77
2022/09/16 06:52:20;;;;;;;7.63;3.17;;;;;;;26.73;46.43;94181.50;5089093;28;20189;-77
2022/09/16 06:54:49;;;;;;;17.13;3.50;;;;;;;26.87;46.71;94184.47;5089761;28;20192;-79
2022/09/16 06:57:17;;;;;;;9.07;3.33;;;;;;;26.76;45.44;94162.59;5088557;28;20177;-79
2022/09/16 06:59:45;;;;;;;7.78;3.05;;;;;;;27.02;45.70;94191.66;5089347;28;20193;-77
2022/09/16 07:02:12;;;;;;;8.05;2.83;;;;;;;27.20;45.60;94196.56;5088776;28;20194;-77
2022/09/16 07:04:39;;;;;;;5.97;2.92;;;;;;;27.31;45.01;94205.28;5088881;28;20196;-78
2022/09/16 07:07:06;;;;;;;14.70;2.78;;;;;;;27.44;45.46;94196.94;5088636;28;20257;-79
2022/09/16 07:09:33;;;;;;;11.00;2.95;;;;;;;27.62;44.45;94200.19;5088410;28;20182;-80
2022/09/16 07:12:01;;;;;;;8.57;2.55;;;;;;;27.64;44.66;94188.38;5088416;28;20239;-79
2022/09/16 07:14:28;;;;;;;11.52;2.67;;;;;;;27.72;44.71;94187.91;5089829;28;20274;-79
2022/09/16 07:16:56;;;;;;;7.78;2.47;;;;;;;27.93;43.58;94201.91;5089728;28;20189;-76
2022/09/16 07:19:23;;;;;;;14.68;3.47;;;;;;;27.99;42.99;94203.50;5089084;28;20615;-77
2022/09/16 07:21:50;;;;;;;8.57;2.95;;;;;;;28.05;43.38;94206.94;5103227;28;20189;-81
2022/09/16 07:24:17;;;;;;;9.55;2.60;;;;;;;28.11;43.50;94190.16;5089474;28;20210;-80
2022/09/16 07:26:45;;;;;;;8.93;2.85;;;;;;;28.14;43.48;94202.75;5089841;28;20200;-78
2022/09/16 07:29:13;;;;;;;5.15;2.60;;;;;;;28.25;44.51;94201.75;5089797;28;20197;-77
2022/09/16 07:31:40;;;;;;;5.43;2.95;;;;;;;28.37;43.10;94198.09;5089625;28;20213;-75
2022/09/16 07:34:12;;;;;;;12.13;3.38;;;;;;;27.65;44.40;94078.81;5092174;28;20204;-76
2022/09/16 07:36:41;;;;;;;10.15;3.05;;;;;;;28.52;43.21;94207.88;5090693;28;20619;-76
2022/09/16 07:39:08;;;;;;;14.73;3.53;;;;;;;28.50;42.71;94201.03;5089050;28;20190;-77
2022/09/16 07:41:38;;;;;;;8.32;3.15;;;;;;;28.49;43.50;94188.91;5089134;28;20194;-78
2022/09/16 07:44:05;;;;;;;13.10;3.20;;;;;;;28.56;43.19;94172.88;5089714;28;20598;-76
2022/09/16 07:46:35;;;;;;;10.02;3.13;;;;;;;28.42;42.99;94127.91;5089075;28;20238;-79
2022/09/16 07:49:04;;;;;;;7.18;3.58;;;;;;;28.88;44.06;94177.88;5088342;28;20178;-76
2022/09/16 07:51:32;;;;;;;9.82;3.22;;;;;;;29.09;43.32;94176.03;5088984;28;20652;-76
2022/09/16 07:54:01;;;;;;;13.10;2.83;;;;;;;29.23;42.67;94173.63;5094807;28;20190;-76
2022/09/16 07:56:30;;;;;;;8.75;3.13;;;;;;;29.31;41.42;94178.38;5104543;28;20213;-77
2022/09/16 07:58:57;;;;;;;7.80;3.58;;;;;;;29.36;41.51;94174.94;5091676;28;20536;-77
2022/09/16 08:01:25;;;;;;;10.32;3.60;;;;;;;29.22;41.66;94151.78;5109439;28;20193;-78
2022/09/16 08:03:52;;;;;;;7.63;3.42;;;;;;;29.37;41.35;94164.16;5108595;28;20275;-75
2022/09/16 08:06:21;;;;;;;6.10;3.00;;;;;;;29.48;41.70;94165.66;5108405;28;20715;-78
2022/09/16 08:08:52;;;;;;;9.55;4.05;;;;;;;29.51;41.50;94161.72;5100402;28;20216;-76
2022/09/16 08:11:20;;;;;;;9.55;3.10;;;;;;;29.38;40.42;94123.56;5097173;28;20656;-76
2022/09/16 08:13:48;;;;;;;9.98;4.07;;;;;;;29.43;40.33;94151.72;5081828;28;20236;-81
2022/09/16 08:16:16;;;;;;;9.27;3.63;;;;;;;29.28;41.50;94130.72;5099956;28;20189;-76
2022/09/16 08:18:44;;;;;;;9.00;3.63;;;;;;;29.38;41.39;94144.63;5102404;28;20186;-77
2022/09/16 08:21:13;;;;;;;11.80;4.22;;;;;;;29.49;42.10;94145.38;5101933;28;20538;-77
2022/09/16 08:23:41;;;;;;;10.02;3.42;;;;;;;29.44;41.79;94132.22;5101326;28;20216;-75
2022/09/16 08:26:12;;;;;;;12.85;3.95;;;;;;;29.70;41.78;94152.19;5101249;28;20182;-77
2022/09/16 08:28:40;;;;;;;12.93;3.55;;;;;;;29.77;41.28;94149.25;5098063;28;20220;-76
2022/09/16 08:31:08;;;;;;;10.65;3.83;;;;;;;29.76;39.94;94145.06;5103325;28;20281;-76
2022/09/16 08:33:35;;;;;;;5.93;3.00;;;;;;;29.82;40.84;94146.59;5094261;28;20278;-77
2022/09/16 08:36:04;;;;;;;11.68;3.35;;;;;;;29.74;41.71;94134.75;5099857;28;20416;-77
2022/09/16 08:38:32;;;;;;;11.95;3.88;;;;;;;29.66;40.87;94140.63;5098708;28;20246;-75
2022/09/16 08:41:06;;;;;;;13.07;3.70;;;;;;;29.54;40.67;94107.72;5100385;28;20247;-78
2022/09/16 08:43:39;;;;;;;5.30;2.60;;;;;;;29.70;40.21;94132.94;5096051;28;20217;-76
2022/09/16 08:46:17;;;;;;;13.60;3.53;;;;;;;29.44;40.50;94090.84;5094035;28;20645;-79
2022/09/16 08:48:53;;;;;;;11.75;3.17;;;;;;;29.65;41.76;94122.44;5101007;28;20277;-77
2022/09/16 08:51:22;;;;;;;6.85;3.25;;;;;;;29.76;42.00;94126.59;5100181;28;20272;-77
2022/09/16 08:53:54;;;;;;;9.60;3.42;;;;;;;29.78;41.69;94126.31;5076766;28;20190;-77
2022/09/16 08:56:24;;;;;;;11.20;3.38;;;;;;;29.79;42.33;94128.69;5094211;28;20190;-76
2022/09/16 08:58:55;;;;;;;12.32;3.40;;;;;;;29.71;40.93;94134.53;5090977;28;20201;-75
2022/09/16 09:01:29;;;;;;;10.55;3.25;;;;;;;29.57;41.60;94131.69;5099688;28;20315;-77
2022/09/16 09:03:56;;;;;;;10.18;3.17;;;;;;;29.54;41.18;94126.16;5103659;28;20220;-76
2022/09/16 09:06:44;;;;;;;13.82;3.22;;;;;;;29.53;41.37;94129.81;5104060;28;20232;-76
2022/09/16 09:09:28;;;;;;;8.27;2.95;;;;;;;29.53;42.52;94125.34;5094956;28;20195;-75
2022/09/16 09:12:04;;;;;;;11.70;3.25;;;;;;;29.28;41.55;94126.25;5102530;28;20193;-75
2022/09/16 09:14:47;;;;;;;7.80;2.88;;;;;;;29.22;41.67;94125.44;5102218;28;20254;-75
2022/09/16 09:17:23;;;;;;;10.55;3.28;;;;;;;29.29;41.81;94135.72;5095640;28;20192;-76
2022/09/16 09:20:05;;;;;;;10.50;3.15;;;;;;;29.25;42.32;94132.03;5102517;28;20211;-75
2022/09/16 09:22:49;;;;;;;9.13;3.78;;;;;;;29.17;41.99;94136.00;5102585;28;20694;-75
2022/09/16 09:25:28;;;;;;;8.52;3.25;;;;;;;28.98;42.38;94133.16;5096914;28;20209;-75
2022/09/16 09:28:12;;;;;;;12.98;3.15;;;;;;;28.99;42.04;94126.03;5106615;28;20660;-75
2022/09/16 09:30:52;;;;;;;10.95;3.40;;;;;;;28.81;43.00;94119.47;5100781;28;20188;-78
2022/09/16 09:33:30;;;;;;;12.75;3.47;;;;;;;28.83;42.88;94122.59;5104875;28;20696;-76
2022/09/16 09:36:26;;;;;;;12.75;4.00;;;;;;;28.88;43.02;94121.81;5097642;28;20193;-76
2022/09/16 09:39:08;;;;;;;11.38;3.45;;;;;;;28.87;43.31;94138.66;5105381;28;20631;-76
2022/09/16 09:41:42;;;;;;;13.32;3.45;;;;;;;28.89;43.85;94137.34;5100252;28;20691;-76
2022/09/16 09:44:32;;;;;;;13.30;4.22;;;;;;;28.93;43.57;94143.66;5099189;28;20594;-75
2022/09/16 09:47:08;;;;;;;6.35;3.33;;;;;;;28.82;43.24;94128.13;5093373;28;20181;-75
2022/09/16 09:49:41;;;;;;;9.60;3.50;;;;;;;28.79;43.60;94142.59;5102422;28;20648;-79
2022/09/16 09:52:30;;;;;;;8.55;2.83;;;;;;;28.72;44.07;94134.22;5077962;28;20657;-81
2022/09/16 09:55:02;;;;;;;7.53;3.05;;;;;;;28.85;44.42;94153.94;5095996;28;20193;-75
2022/09/16 09:57:36;;;;;;;12.48;2.97;;;;;;;28.89;44.84;94155.00;5100287;28;20200;-77
2022/09/16 10:00:12;;;;;;;12.20;3.00;;;;;;;28.84;45.69;94179.44;5104716;28;20197;-79
2022/09/16 10:02:42;;;;;;;11.80;3.38;;;;;;;28.82;46.50;94184.19;5099157;28;20201;-78
2022/09/16 10:05:23;;;;;;;15.55;3.72;;;;;;;28.77;47.13;94201.84;5096248;28;20238;-79
2022/09/16 10:07:53;;;;;;;9.02;3.17;;;;;;;28.54;47.86;94177.63;5101505;28;20193;-74
2022/09/16 10:10:23;;;;;;;13.27;3.17;;;;;;;28.48;49.24;94199.72;5098740;28;20193;-77
2022/09/16 10:12:51;;;;;;;14.10;3.33;;;;;;;28.40;51.24;94208.09;5102356;28;20196;-79
2022/09/16 10:15:23;;;;;;;14.93;4.30;;;;;;;28.10;52.84;94201.69;5098921;28;20197;-77
2022/09/16 10:17:53;;;;;;;14.93;3.60;;;;;;;27.95;52.80;94220.84;5099499;28;20637;-76
2022/09/16 10:20:28;;;;;;;16.63;4.63;;;;;;;27.92;54.31;94271.31;5098201;28;20276;-76
2022/09/16 10:22:59;;;;;;;17.80;3.67;;;;;;;27.84;54.34;94295.44;5100045;28;20196;-77
2022/09/16 10:25:26;;;;;;;15.57;3.83;;;;;;;27.87;54.00;94302.03;5098051;28;20299;-78
2022/09/16 10:27:58;;;;;;;16.20;3.58;;;;;;;27.79;52.97;94307.78;5103450;28;20189;-76
2022/09/16 10:30:27;;;;;;;11.40;2.97;;;;;;;27.56;54.50;94350.94;5098454;28;20193;-76
2022/09/16 10:33:00;;;;;;;15.98;2.90;;;;;;;27.40;54.45;94363.16;5101103;28;20185;-77
2022/09/16 10:35:29;;;;;;;6.43;2.60;;;;;;;27.03;55.20;94371.75;5091927;28;20186;-78
2022/09/16 10:37:58;;;;;;;3.90;2.05;;;;;;;26.77;57.34;94360.19;5102510;28;20193;-76
2022/09/16 10:40:25;;;;;;;6.70;2.53;;;;;;;26.53;57.34;94370.16;5102870;28;20205;-75
2022/09/16 10:42:54;;;;;;;7.22;2.33;;;;;;;26.44;59.19;94377.66;5098121;28;20194;-77
2022/09/16 10:45:28;;;;;;;7.60;2.78;;;;;;;26.27;59.68;94369.81;5089117;28;20221;-77
2022/09/16 10:47:59;;;;;;;6.57;2.17;;;;;;;26.09;60.61;94369.31;5092436;28;20177;-76
2022/09/16 10:50:26;;;;;;;9.27;2.50;;;;;;;25.90;62.25;94377.44;5104032;28;20190;-77
2022/09/16 10:52:54;;;;;;;6.85;2.35;;;;;;;25.77;63.29;94365.47;5101870;28;20569;-78
2022/09/16 10:55:25;;;;;;;5.93;2.38;;;;;;;25.64;62.67;94362.34;5100506;28;20696;-76
2022/09/16 10:57:53;;;;;;;3.22;1.98;;;;;;;25.53;61.79;94341.25;5091318;28;20216;-76
2022/09/16 11:00:22;;;;;;;5.45;1.80;;;;;;;25.22;64.70;94298.13;5097195;28;20216;-79
2022/09/16 11:03:32;;;;;;;5.60;2.03;;;;;;;25.36;65.23;94310.88;5094165;28;20198;-77
2022/09/16 11:06:11;;;;;;;5.38;1.95;;;;;;;25.35;65.54;94302.25;5098926;28;20233;-76
2022/09/16 11:08:51;;;;;;;3.33;1.88;;;;;;;25.27;64.44;94274.63;5102221;28;20221;-79
2022/09/16 11:11:28;;;;;;;5.95;2.20;;;;;;;25.18;64.87;94244.66;5093324;28;20694;-80
2022/09/16 11:14:00;;;;;;;3.60;1.80;;;;;;;25.22;64.35;94237.91;5091663;28;20583;-78
2022/09/16 11:16:42;;;;;;;3.15;2.10;;;;;;;25.40;65.36;94221.16;5095073;28;20201;-77
2022/09/16 11:19:17;;;;;;;3.63;2.13;;;;;;;25.56;64.05;94203.00;5090679;28;20264;-77
2022/09/16 11:21:57;;;;;;;3.13;1.83;;;;;;;25.71;63.34;94185.66;5093066;28;20654;-78
2022/09/16 11:24:50;;;;;;;1.90;1.77;;;;;;;25.79;61.50;94187.09;5099208;28;20224;-78
2022/09/16 11:27:30;;;;;;;3.83;1.63;;;;;;;26.03;60.79;94182.38;5024903;28;20201;-78
2022/09/16 11:30:08;;;;;;;4.63;1.70;;;;;;;26.07;60.00;94172.19;5026515;28;20200;-77
2022/09/16 11:33:00;;;;;;;3.08;1.70;;;;;;;26.15;59.54;94162.06;5020649;28;20292;-77
2022/09/16 11:35:41;;;;;;;1.90;1.42;;;;;;;25.99;58.31;94140.16;5014988;28;20207;-76
2022/09/16 11:38:18;;;;;;;5.45;1.52;;;;;;;26.09;57.83;94146.53;5008841;28;20246;-78
2022/09/16 11:40:51;;;;;;;3.35;1.50;;;;;;;26.18;56.44;94150.28;5013469;28;20192;-78
2022/09/16 11:43:45;;;;;;;1.60;1.30;;;;;;;26.05;55.12;94127.91;5010962;28;20184;-79
2022/09/16 11:46:22;;;;;;;3.35;2.05;;;;;;;26.09;55.54;94143.91;4959613;28;20193;-76
2022/09/16 11:49:05;;;;;;;2.10;1.35;;;;;;;26.06;56.54;94144.41;4952542;28;20197;-78